Time;durP1;ratioP1;P1;durP2;ratioP2;P2;SDS_P1;SDS_P2;PMS_P1;PMS_P2;Temp;Humidity;BMP_temperature;BMP_pressure;BME280_temperature;BME280_humidity;BME280_pressure;Samples;Min_cycle;Max_cycle;Signal;HPM_P1;HPM_P2
2022/10/06 00:04:14;;;;;;;0.20;0.00;;;19.30;99.90;;;;;;21303117;27;20252;-69
2022/10/06 00:14:19;;;;;;;0.20;0.10;;;19.40;99.90;;;;;;21304641;27;20218;-69
2022/10/06 00:24:22;;;;;;;0.20;0.00;;;19.60;99.90;;;;;;21302290;27;20240;-70
2022/10/06 00:34:27;;;;;;;0.20;0.10;;;19.70;99.90;;;;;;21253519;27;20215;-69
2022/10/06 00:44:31;;;;;;;0.20;0.00;;;19.80;99.90;;;;;;21259395;28;20225;-70
2022/10/06 00:54:36;;;;;;;0.20;0.00;;;19.50;99.90;;;;;;21256360;28;20241;-70
2022/10/06 01:04:44;;;;;;;0.20;0.00;;;19.20;99.90;;;;;;21239498;28;20215;-70
2022/10/06 01:14:51;;;;;;;0.20;0.00;;;19.00;99.90;;;;;;21257231;28;20211;-69
2022/10/06 01:24:56;;;;;;;0.20;0.00;;;18.90;99.90;;;;;;21257903;28;20187;-70
2022/10/06 01:35:00;;;;;;;0.20;0.00;;;18.80;99.90;;;;;;21252064;28;20219;-69
2022/10/06 01:45:07;;;;;;;0.20;0.10;;;18.80;99.90;;;;;;21255563;28;20225;-69
2022/10/06 01:55:10;;;;;;;0.20;0.00;;;18.80;99.90;;;;;;21254906;28;20237;-70
2022/10/06 02:05:15;;;;;;;0.20;0.00;;;18.80;99.90;;;;;;21246047;28;20231;-69
2022/10/06 02:15:20;;;;;;;0.20;0.00;;;18.80;99.90;;;;;;21253829;28;20212;-69
2022/10/06 02:25:26;;;;;;;0.20;0.10;;;18.70;99.90;;;;;;21252967;28;20192;-69
2022/10/06 02:35:29;;;;;;;0.20;0.00;;;18.70;99.90;;;;;;21215094;28;20226;-69
2022/10/06 02:45:34;;;;;;;0.20;0.00;;;18.60;99.90;;;;;;21167695;28;20188;-70
2022/10/06 02:55:39;;;;;;;0.20;0.00;;;18.80;99.90;;;;;;21166970;28;20234;-71
2022/10/06 03:05:45;;;;;;;0.20;0.00;;;18.80;99.90;;;;;;21239533;28;20256;-70
2022/10/06 03:15:48;;;;;;;0.20;0.00;;;18.90;99.90;;;;;;21251023;28;20889;-71
2022/10/06 03:25:57;;;;;;;0.20;0.00;;;19.00;99.90;;;;;;21250759;28;20191;-70
2022/10/06 03:36:03;;;;;;;0.20;0.00;;;19.00;99.90;;;;;;21188454;28;20203;-70
2022/10/06 03:46:10;;;;;;;0.20;0.10;;;18.80;99.90;;;;;;21247848;28;20179;-71
2022/10/06 03:56:15;;;;;;;0.20;0.10;;;18.70;99.90;;;;;;21247323;28;20283;-69
2022/10/06 04:06:20;;;;;;;0.20;0.10;;;18.90;99.90;;;;;;21263393;28;20223;-69
2022/10/06 04:16:26;;;;;;;0.20;0.00;;;18.90;99.90;;;;;;21262875;28;20223;-68
2022/10/06 04:26:36;;;;;;;0.20;0.00;;;18.70;99.90;;;;;;21261483;28;20191;-69
2022/10/06 04:36:41;;;;;;;0.20;0.00;;;18.60;99.90;;;;;;21197314;28;20246;-70
2022/10/06 04:46:46;;;;;;;0.20;0.00;;;18.50;99.90;;;;;;21175212;28;20222;-70
2022/10/06 04:56:50;;;;;;;0.20;0.10;;;18.80;99.90;;;;;;21174511;28;20204;-71
2022/10/06 05:06:55;;;;;;;0.20;0.00;;;19.80;99.90;;;;;;21155569;28;20239;-70
2022/10/06 05:16:59;;;;;;;0.20;0.10;;;20.10;99.90;;;;;;21155238;28;20245;-70
2022/10/06 05:27:05;;;;;;;0.20;0.10;;;19.90;99.90;;;;;;21171059;28;20196;-72
2022/10/06 05:37:09;;;;;;;0.20;0.10;;;19.80;99.90;;;;;;21170725;28;20220;-70
2022/10/06 05:47:14;;;;;;;0.20;0.10;;;19.80;99.90;;;;;;21167265;28;20199;-70
2022/10/06 05:57:17;;;;;;;0.20;0.10;;;19.70;99.90;;;;;;21161229;28;20318;-69
2022/10/06 06:07:22;;;;;;;0.20;0.00;;;20.10;99.90;;;;;;21159508;28;20242;-69
2022/10/06 06:17:26;;;;;;;0.20;0.10;;;19.80;99.90;;;;;;21166522;28;20273;-70
2022/10/06 06:27:31;;;;;;;0.20;0.00;;;20.00;99.90;;;;;;21165449;28;20208;-70
2022/10/06 06:37:35;;;;;;;0.20;0.00;;;20.50;99.90;;;;;;21227805;28;20223;-70
2022/10/06 06:47:40;;;;;;;0.20;0.00;;;20.90;99.90;;;;;;21248053;28;20187;-71
2022/10/06 06:57:46;;;;;;;0.20;0.00;;;20.80;99.90;;;;;;21246368;28;20295;-68
2022/10/06 07:07:51;;;;;;;0.20;0.00;;;20.50;99.90;;;;;;21249697;28;20211;-70
2022/10/06 07:28:17;;;;;;;0.20;0.00;;;20.90;99.90;;;;;;21241910;28;20210;-70
2022/10/06 07:38:24;;;;;;;0.20;0.00;;;21.20;99.90;;;;;;21262380;28;20227;-70
2022/10/06 07:48:29;;;;;;;0.20;0.00;;;21.10;99.90;;;;;;21260770;28;20191;-71
2022/10/06 07:58:36;;;;;;;0.20;0.00;;;21.30;99.90;;;;;;21260524;28;20215;-70
2022/10/06 08:08:42;;;;;;;0.20;0.00;;;21.80;99.90;;;;;;21236644;28;20284;-70
2022/10/06 08:18:52;;;;;;;0.20;0.00;;;22.40;99.90;;;;;;21246128;28;20254;-70
2022/10/06 08:29:01;;;;;;;0.20;0.00;;;22.50;99.90;;;;;;21174117;28;20218;-70
2022/10/06 08:39:06;;;;;;;0.20;0.00;;;22.60;99.90;;;;;;21168341;28;20226;-70
2022/10/06 08:49:18;;;;;;;0.20;0.00;;;23.00;99.90;;;;;;21255250;28;20228;-69
2022/10/06 08:59:22;;;;;;;0.20;0.00;;;23.40;99.90;;;;;;21209884;28;20219;-70
2022/10/06 09:09:50;;;;;;;0.20;0.00;;;23.80;99.90;;;;;;21209152;28;20214;-70
2022/10/06 09:19:58;;;;;;;0.20;0.00;;;23.50;99.90;;;;;;21233992;28;20245;-71
2022/10/06 09:30:05;;;;;;;0.20;0.00;;;23.80;99.90;;;;;;21233544;28;20196;-70
2022/10/06 09:40:33;;;;;;;0.20;0.00;;;23.50;99.90;;;;;;21234585;28;20238;-68
2022/10/06 09:50:39;;;;;;;0.20;0.00;;;24.60;99.90;;;;;;21251432;28;20179;-70
2022/10/06 10:00:47;;;;;;;0.20;0.00;;;24.00;99.90;;;;;;21209106;28;20237;-70
2022/10/06 10:21:33;;;;;;;0.20;0.00;;;24.50;99.90;;;;;;21247598;28;20222;-69
2022/10/06 10:31:53;;;;;;;0.20;0.00;;;25.20;99.90;;;;;;21231397;28;20183;-70
2022/10/06 10:42:01;;;;;;;0.20;0.00;;;24.80;99.90;;;;;;21247074;28;20456;-70
2022/10/06 10:52:11;;;;;;;0.20;0.10;;;25.10;99.90;;;;;;21248404;28;21029;-69
2022/10/06 11:02:20;;;;;;;0.20;0.00;;;25.50;99.90;;;;;;21157929;28;20276;-69
2022/10/06 11:12:37;;;;;;;0.20;0.00;;;26.50;99.90;;;;;;21158165;28;20514;-69
2022/10/06 11:22:46;;;;;;;0.20;0.00;;;26.80;99.90;;;;;;21188852;28;20402;-69
2022/10/06 11:33:05;;;;;;;0.20;0.03;;;27.70;99.90;;;;;;21237169;28;20382;-68
2022/10/06 11:43:17;;;;;;;0.20;0.00;;;27.40;99.90;;;;;;21218102;28;20398;-69
2022/10/06 11:53:39;;;;;;;0.40;0.40;;;27.40;99.90;;;;;;21225677;28;20382;-69
2022/10/06 12:03:48;;;;;;;0.20;0.00;;;27.30;99.90;;;;;;21170554;28;20404;-69
2022/10/06 12:13:55;;;;;;;0.20;0.00;;;27.80;99.90;;;;;;21170581;28;20410;-69
2022/10/06 12:24:33;;;;;;;0.20;0.00;;;27.60;99.90;;;;;;21169536;28;20547;-68
2022/10/06 12:34:57;;;;;;;0.20;0.00;;;27.60;99.90;;;;;;21149831;28;20396;-69
2022/10/06 12:45:01;;;;;;;0.20;0.00;;;27.30;99.90;;;;;;21162301;28;20404;-71
2022/10/06 12:55:28;;;;;;;0.20;0.00;;;27.60;99.90;;;;;;21215617;28;20383;-71
2022/10/06 13:05:34;;;;;;;0.20;0.00;;;27.60;99.90;;;;;;21250790;28;20406;-71
2022/10/06 13:15:43;;;;;;;0.20;0.00;;;27.70;99.90;;;;;;21250733;28;20412;-70
2022/10/06 13:25:49;;;;;;;0.20;0.00;;;28.50;99.90;;;;;;21232206;28;20404;-69
2022/10/06 13:35:55;;;;;;;0.20;0.00;;;28.80;99.90;;;;;;21246056;28;20404;-69
2022/10/06 13:45:59;;;;;;;0.20;0.00;;;29.70;99.90;;;;;;21248907;28;20386;-70
2022/10/06 13:56:05;;;;;;;0.20;0.00;;;29.60;99.90;;;;;;21203411;28;20475;-69
2022/10/06 14:06:15;;;;;;;0.20;0.00;;;29.20;99.90;;;;;;21161710;28;20396;-70
2022/10/06 14:16:22;;;;;;;0.20;0.00;;;27.30;99.90;;;;;;21159814;28;20426;-69
2022/10/06 14:26:28;;;;;;;0.20;0.00;;;28.90;99.90;;;;;;21141966;28;20430;-68
2022/10/06 14:36:36;;;;;;;0.20;0.00;;;29.20;99.90;;;;;;21156242;28;20419;-70
2022/10/06 14:46:41;;;;;;;0.20;0.00;;;28.70;99.90;;;;;;21210857;28;20386;-70
2022/10/06 14:56:51;;;;;;;0.20;0.00;;;28.90;99.90;;;;;;21215640;28;20404;-68
2022/10/06 15:17:18;;;;;;;0.20;0.00;;;28.80;99.90;;;;;;21234738;28;20399;-70
2022/10/06 15:37:44;;;;;;;0.20;0.00;;;27.40;99.90;;;;;;21234131;28;20486;-69
2022/10/06 15:47:51;;;;;;;0.20;0.00;;;25.60;99.90;;;;;;21234286;28;20545;-69
2022/10/06 15:57:56;;;;;;;0.20;0.00;;;25.00;99.90;;;;;;21215525;28;20407;-68
2022/10/06 16:08:00;;;;;;;0.20;0.10;;;25.00;99.90;;;;;;21147352;28;20492;-70
2022/10/06 16:18:06;;;;;;;0.20;0.00;;;24.50;99.90;;;;;;21148636;28;20423;-70
2022/10/06 16:28:10;;;;;;;0.20;0.00;;;24.20;99.90;;;;;;21181822;28;20395;-70
2022/10/06 16:38:15;;;;;;;0.20;0.00;;;23.80;99.90;;;;;;21179253;28;20385;-70
2022/10/06 16:48:18;;;;;;;0.20;0.00;;;23.40;99.90;;;;;;21162754;28;20393;-70
2022/10/06 16:58:23;;;;;;;0.20;0.00;;;23.30;99.90;;;;;;21226031;28;20418;-70
2022/10/06 17:08:27;;;;;;;0.20;0.00;;;23.00;99.90;;;;;;21228710;28;20485;-68
2022/10/06 17:18:33;;;;;;;0.20;0.08;;;22.90;99.90;;;;;;21226218;28;20410;-70
2022/10/06 17:28:37;;;;;;;0.20;0.00;;;22.90;99.90;;;;;;21240693;28;20387;-71
2022/10/06 17:38:45;;;;;;;0.20;0.00;;;22.90;99.90;;;;;;21239827;28;20452;-69
2022/10/06 17:48:51;;;;;;;0.20;0.00;;;22.50;99.90;;;;;;21241957;28;20492;-69
2022/10/06 17:58:59;;;;;;;0.20;0.00;;;22.60;99.90;;;;;;21205378;28;20406;-69
2022/10/06 18:09:05;;;;;;;0.20;0.00;;;22.40;99.90;;;;;;21224672;28;20397;-69
2022/10/06 18:19:12;;;;;;;0.20;0.00;;;22.30;99.90;;;;;;21244878;28;20394;-70
2022/10/06 18:29:19;;;;;;;0.20;0.00;;;22.20;99.90;;;;;;21204459;28;20392;-70
2022/10/06 18:39:24;;;;;;;0.20;0.00;;;22.20;99.90;;;;;;21241045;27;20425;-69
2022/10/06 18:49:28;;;;;;;0.20;0.07;;;22.20;99.90;;;;;;21240651;28;20399;-69
2022/10/06 18:59:34;;;;;;;0.20;0.07;;;21.90;99.90;;;;;;21246591;28;20455;-70
2022/10/06 19:09:37;;;;;;;0.20;0.00;;;22.00;99.90;;;;;;21270984;28;20423;-70
2022/10/06 19:19:50;;;;;;;0.20;0.00;;;21.90;99.90;;;;;;21254239;28;20394;-70
2022/10/06 19:29:55;;;;;;;0.20;0.00;;;21.90;99.90;;;;;;21252926;28;20396;-70
2022/10/06 19:40:00;;;;;;;0.20;0.00;;;21.60;99.90;;;;;;21268932;28;20393;-71
2022/10/06 19:50:06;;;;;;;0.20;0.10;;;21.60;99.90;;;;;;21271791;28;20386;-70
2022/10/06 20:00:17;;;;;;;0.20;0.00;;;20.90;99.90;;;;;;21272004;28;20409;-70
2022/10/06 20:10:20;;;;;;;0.20;0.00;;;20.60;99.90;;;;;;21251270;28;20403;-70
2022/10/06 20:20:26;;;;;;;0.20;0.10;;;20.30;99.90;;;;;;21257810;28;20394;-71
2022/10/06 20:30:30;;;;;;;0.20;0.00;;;20.30;99.90;;;;;;21256570;28;20398;-70
2022/10/06 20:40:42;;;;;;;0.20;0.00;;;19.90;99.90;;;;;;21187370;28;20478;-72
2022/10/06 20:50:45;;;;;;;0.20;0.00;;;19.80;99.90;;;;;;21237659;28;20383;-72
2022/10/06 21:00:51;;;;;;;0.20;0.00;;;19.60;99.90;;;;;;21248878;28;20413;-72
2022/10/06 21:10:58;;;;;;;0.20;0.10;;;19.20;99.90;;;;;;21248996;28;20409;-73
2022/10/06 21:21:06;;;;;;;0.20;0.00;;;19.20;99.90;;;;;;21235710;28;20410;-73
2022/10/06 21:31:12;;;;;;;0.20;0.00;;;19.30;99.90;;;;;;21251449;28;20390;-72
2022/10/06 21:41:33;;;;;;;0.20;0.00;;;19.20;99.90;;;;;;21167631;28;20416;-71
2022/10/06 21:51:37;;;;;;;0.20;0.00;;;19.20;99.90;;;;;;21167143;28;20404;-71
2022/10/06 22:01:44;;;;;;;0.20;0.00;;;19.00;99.90;;;;;;21165636;28;20389;-72
2022/10/06 22:11:48;;;;;;;0.20;0.00;;;18.90;99.90;;;;;;21169880;28;20242;-71
2022/10/06 22:21:54;;;;;;;0.20;0.10;;;18.90;99.90;;;;;;21169456;28;20220;-71
2022/10/06 22:31:58;;;;;;;0.20;0.10;;;18.60;99.90;;;;;;21174361;28;20191;-72
2022/10/06 22:42:03;;;;;;;0.20;0.00;;;18.70;99.90;;;;;;21252600;28;20254;-71
2022/10/06 22:52:07;;;;;;;0.20;0.00;;;18.70;99.90;;;;;;21252643;28;20574;-71
2022/10/06 23:02:12;;;;;;;0.20;0.10;;;18.70;99.90;;;;;;21252096;28;20239;-72
2022/10/06 23:12:15;;;;;;;0.20;0.00;;;18.50;99.90;;;;;;21251458;28;20231;-70
2022/10/06 23:22:21;;;;;;;0.20;0.03;;;18.70;99.90;;;;;;21246431;28;20398;-70
2022/10/06 23:32:24;;;;;;;0.20;0.00;;;18.60;99.90;;;;;;21245105;28;20394;-71
2022/10/06 23:42:30;;;;;;;0.20;0.10;;;18.50;99.90;;;;;;21250581;28;20238;-71
2022/10/06 23:52:33;;;;;;;0.20;0.00;;;18.30;99.90;;;;;;21244306;28;20196;-72
